Terminal Aerodrome Forecast
Issued by NWS Mt. Holly, NJ

Home | Current Version | Previous Version | Text Only | Print | Product List | Glossary On
Versions: 1 2 3 4 5 6 7 8 9 10 11 12 13 14 15 16 17 18 19 20 21 22 23
000
FTUS41 KPHI 231400 AAA
TAFPHL
TAF AMD
KPHL 231437Z 2315/2418 31021G32KT P6SM BKN040
      TEMPO 2320/2324 SCT050
     FM240000 31015G25KT P6SM SKC
     FM240600 30015KT P6SM SKC
     FM241400 31015G25KT P6SM SKC=

USA.gov is the U.S. government's official web portal to all federal, state and local government web resources and services.